sensor_id;sensor_type;location;lat;lon;timestamp;P1;durP1;ratioP1;P2;durP2;ratioP2
35602;SDS011;21725;50.836;4.368;2024-01-30T00:00:53;11.02;;;4.30;;
35602;SDS011;21725;50.836;4.368;2024-01-30T00:03:57;6.47;;;3.65;;
35602;SDS011;21725;50.836;4.368;2024-01-30T00:06:58;7.28;;;4.05;;
35602;SDS011;21725;50.836;4.368;2024-01-30T00:09:59;9.88;;;4.65;;
35602;SDS011;21725;50.836;4.368;2024-01-30T00:13:00;7.20;;;4.47;;
35602;SDS011;21725;50.836;4.368;2024-01-30T00:16:04;8.07;;;4.82;;
35602;SDS011;21725;50.836;4.368;2024-01-30T00:19:07;9.27;;;3.83;;
35602;SDS011;21725;50.836;4.368;2024-01-30T00:22:11;6.18;;;3.55;;
35602;SDS011;21725;50.836;4.368;2024-01-30T00:25:24;7.75;;;3.80;;
35602;SDS011;21725;50.836;4.368;2024-01-30T00:28:28;8.30;;;3.88;;
35602;SDS011;21725;50.836;4.368;2024-01-30T00:31:34;7.40;;;4.03;;
35602;SDS011;21725;50.836;4.368;2024-01-30T00:34:36;8.50;;;3.67;;
35602;SDS011;21725;50.836;4.368;2024-01-30T00:37:40;7.78;;;4.00;;
35602;SDS011;21725;50.836;4.368;2024-01-30T00:40:44;7.03;;;4.05;;
35602;SDS011;21725;50.836;4.368;2024-01-30T00:43:48;8.00;;;4.47;;
35602;SDS011;21725;50.836;4.368;2024-01-30T00:46:53;6.35;;;4.03;;
35602;SDS011;21725;50.836;4.368;2024-01-30T00:49:54;6.35;;;3.38;;
35602;SDS011;21725;50.836;4.368;2024-01-30T00:53:01;10.05;;;4.93;;
35602;SDS011;21725;50.836;4.368;2024-01-30T00:56:03;8.07;;;4.18;;
35602;SDS011;21725;50.836;4.368;2024-01-30T00:59:06;7.28;;;3.50;;
35602;SDS011;21725;50.836;4.368;2024-01-30T01:02:09;7.63;;;3.65;;
35602;SDS011;21725;50.836;4.368;2024-01-30T01:05:11;6.22;;;3.60;;
35602;SDS011;21725;50.836;4.368;2024-01-30T01:08:17;7.32;;;3.75;;
35602;SDS011;21725;50.836;4.368;2024-01-30T01:11:22;5.13;;;3.42;;
35602;SDS011;21725;50.836;4.368;2024-01-30T01:14:27;9.82;;;3.60;;
35602;SDS011;21725;50.836;4.368;2024-01-30T01:24:53;6.70;;;3.50;;
35602;SDS011;21725;50.836;4.368;2024-01-30T01:43:46;6.97;;;3.72;;
35602;SDS011;21725;50.836;4.368;2024-01-30T01:46:47;5.78;;;3.17;;
35602;SDS011;21725;50.836;4.368;2024-01-30T01:49:48;8.18;;;3.33;;
35602;SDS011;21725;50.836;4.368;2024-01-30T01:52:51;10.50;;;4.47;;
35602;SDS011;21725;50.836;4.368;2024-01-30T01:55:56;7.13;;;3.97;;
35602;SDS011;21725;50.836;4.368;2024-01-30T01:58:59;7.68;;;3.28;;
35602;SDS011;21725;50.836;4.368;2024-01-30T02:02:06;8.70;;;3.88;;
35602;SDS011;21725;50.836;4.368;2024-01-30T02:05:11;6.50;;;3.13;;
35602;SDS011;21725;50.836;4.368;2024-01-30T02:08:17;6.50;;;3.70;;
35602;SDS011;21725;50.836;4.368;2024-01-30T02:11:20;5.97;;;3.72;;
35602;SDS011;21725;50.836;4.368;2024-01-30T02:14:43;7.22;;;3.33;;
35602;SDS011;21725;50.836;4.368;2024-01-30T02:17:49;8.00;;;4.65;;
35602;SDS011;21725;50.836;4.368;2024-01-30T02:20:53;7.80;;;3.22;;
35602;SDS011;21725;50.836;4.368;2024-01-30T02:24:01;7.13;;;3.97;;
35602;SDS011;21725;50.836;4.368;2024-01-30T02:27:04;6.55;;;3.85;;
35602;SDS011;21725;50.836;4.368;2024-01-30T02:30:05;11.25;;;4.05;;
35602;SDS011;21725;50.836;4.368;2024-01-30T02:33:08;7.80;;;3.58;;
35602;SDS011;21725;50.836;4.368;2024-01-30T02:36:09;7.97;;;3.60;;
35602;SDS011;21725;50.836;4.368;2024-01-30T02:39:10;7.38;;;4.10;;
35602;SDS011;21725;50.836;4.368;2024-01-30T02:42:17;6.72;;;4.03;;
35602;SDS011;21725;50.836;4.368;2024-01-30T02:45:20;11.07;;;4.13;;
35602;SDS011;21725;50.836;4.368;2024-01-30T02:48:21;8.00;;;3.63;;
35602;SDS011;21725;50.836;4.368;2024-01-30T02:51:22;7.28;;;3.47;;
35602;SDS011;21725;50.836;4.368;2024-01-30T02:54:25;9.27;;;3.95;;
35602;SDS011;21725;50.836;4.368;2024-01-30T02:57:26;8.07;;;3.80;;
35602;SDS011;21725;50.836;4.368;2024-01-30T03:00:28;7.95;;;3.50;;
35602;SDS011;21725;50.836;4.368;2024-01-30T03:03:30;11.20;;;4.80;;
35602;SDS011;21725;50.836;4.368;2024-01-30T03:06:32;7.88;;;3.67;;
35602;SDS011;21725;50.836;4.368;2024-01-30T03:09:34;8.38;;;3.97;;
35602;SDS011;21725;50.836;4.368;2024-01-30T03:12:35;7.88;;;3.85;;
35602;SDS011;21725;50.836;4.368;2024-01-30T03:15:37;6.43;;;3.65;;
35602;SDS011;21725;50.836;4.368;2024-01-30T03:18:38;9.07;;;5.03;;
35602;SDS011;21725;50.836;4.368;2024-01-30T03:21:41;7.40;;;3.78;;
35602;SDS011;21725;50.836;4.368;2024-01-30T03:24:42;8.35;;;3.50;;
35602;SDS011;21725;50.836;4.368;2024-01-30T03:27:43;7.57;;;3.70;;
35602;SDS011;21725;50.836;4.368;2024-01-30T03:30:44;7.95;;;3.75;;
35602;SDS011;21725;50.836;4.368;2024-01-30T03:33:48;8.00;;;3.72;;
35602;SDS011;21725;50.836;4.368;2024-01-30T03:36:51;5.65;;;3.58;;
35602;SDS011;21725;50.836;4.368;2024-01-30T03:39:52;6.50;;;3.20;;
35602;SDS011;21725;50.836;4.368;2024-01-30T03:42:53;7.95;;;3.63;;
35602;SDS011;21725;50.836;4.368;2024-01-30T03:45:54;8.40;;;3.45;;
35602;SDS011;21725;50.836;4.368;2024-01-30T03:48:56;6.70;;;3.35;;
35602;SDS011;21725;50.836;4.368;2024-01-30T04:04:43;6.25;;;3.60;;
35602;SDS011;21725;50.836;4.368;2024-01-30T04:07:45;10.15;;;4.22;;
35602;SDS011;21725;50.836;4.368;2024-01-30T04:10:47;7.82;;;3.97;;
35602;SDS011;21725;50.836;4.368;2024-01-30T04:13:50;10.32;;;4.72;;
35602;SDS011;21725;50.836;4.368;2024-01-30T04:17:01;8.48;;;4.15;;
35602;SDS011;21725;50.836;4.368;2024-01-30T04:20:22;7.65;;;4.05;;
35602;SDS011;21725;50.836;4.368;2024-01-30T04:23:23;7.15;;;3.63;;
35602;SDS011;21725;50.836;4.368;2024-01-30T04:26:25;8.90;;;3.85;;
35602;SDS011;21725;50.836;4.368;2024-01-30T04:29:26;8.40;;;4.07;;
35602;SDS011;21725;50.836;4.368;2024-01-30T04:32:47;8.55;;;4.15;;
35602;SDS011;21725;50.836;4.368;2024-01-30T04:35:48;7.18;;;3.72;;
35602;SDS011;21725;50.836;4.368;2024-01-30T04:38:49;7.28;;;4.05;;
35602;SDS011;21725;50.836;4.368;2024-01-30T04:41:59;8.70;;;4.00;;
35602;SDS011;21725;50.836;4.368;2024-01-30T04:45:04;8.48;;;4.18;;
35602;SDS011;21725;50.836;4.368;2024-01-30T04:48:07;10.77;;;4.80;;
35602;SDS011;21725;50.836;4.368;2024-01-30T04:51:09;13.98;;;4.30;;
35602;SDS011;21725;50.836;4.368;2024-01-30T04:54:16;7.55;;;4.10;;
35602;SDS011;21725;50.836;4.368;2024-01-30T04:57:22;5.63;;;3.38;;
35602;SDS011;21725;50.836;4.368;2024-01-30T05:00:27;7.75;;;4.10;;
35602;SDS011;21725;50.836;4.368;2024-01-30T05:03:35;7.20;;;4.22;;
35602;SDS011;21725;50.836;4.368;2024-01-30T05:06:38;7.40;;;3.65;;
35602;SDS011;21725;50.836;4.368;2024-01-30T05:13:31;6.82;;;2.95;;
35602;SDS011;21725;50.836;4.368;2024-01-30T05:16:35;8.50;;;4.07;;
35602;SDS011;21725;50.836;4.368;2024-01-30T05:19:38;9.85;;;4.20;;
35602;SDS011;21725;50.836;4.368;2024-01-30T05:22:40;6.13;;;3.88;;
35602;SDS011;21725;50.836;4.368;2024-01-30T05:25:45;7.75;;;4.00;;
35602;SDS011;21725;50.836;4.368;2024-01-30T05:28:46;10.63;;;4.05;;
35602;SDS011;21725;50.836;4.368;2024-01-30T05:31:49;9.30;;;4.28;;
35602;SDS011;21725;50.836;4.368;2024-01-30T05:34:52;8.07;;;4.15;;
35602;SDS011;21725;50.836;4.368;2024-01-30T05:37:56;9.52;;;4.88;;
35602;SDS011;21725;50.836;4.368;2024-01-30T05:41:04;8.98;;;4.45;;
35602;SDS011;21725;50.836;4.368;2024-01-30T05:44:11;7.35;;;4.05;;
35602;SDS011;21725;50.836;4.368;2024-01-30T05:47:18;11.52;;;5.72;;
35602;SDS011;21725;50.836;4.368;2024-01-30T05:50:56;14.70;;;4.75;;
35602;SDS011;21725;50.836;4.368;2024-01-30T05:57:21;6.43;;;3.63;;
35602;SDS011;21725;50.836;4.368;2024-01-30T06:00:25;7.35;;;4.18;;
35602;SDS011;21725;50.836;4.368;2024-01-30T06:03:27;8.90;;;4.05;;
35602;SDS011;21725;50.836;4.368;2024-01-30T06:06:34;11.50;;;4.28;;
35602;SDS011;21725;50.836;4.368;2024-01-30T06:09:37;7.97;;;4.70;;
35602;SDS011;21725;50.836;4.368;2024-01-30T06:12:39;9.43;;;4.70;;
35602;SDS011;21725;50.836;4.368;2024-01-30T06:15:40;11.57;;;4.63;;
35602;SDS011;21725;50.836;4.368;2024-01-30T06:18:41;7.38;;;4.20;;
35602;SDS011;21725;50.836;4.368;2024-01-30T06:21:42;8.30;;;5.28;;
35602;SDS011;21725;50.836;4.368;2024-01-30T06:24:43;8.95;;;4.53;;
35602;SDS011;21725;50.836;4.368;2024-01-30T06:27:50;10.55;;;4.90;;
35602;SDS011;21725;50.836;4.368;2024-01-30T06:30:56;9.77;;;4.00;;
35602;SDS011;21725;50.836;4.368;2024-01-30T06:33:57;9.65;;;4.82;;
35602;SDS011;21725;50.836;4.368;2024-01-30T06:37:01;8.20;;;4.53;;
35602;SDS011;21725;50.836;4.368;2024-01-30T06:40:02;9.40;;;4.68;;
35602;SDS011;21725;50.836;4.368;2024-01-30T06:43:06;11.10;;;5.07;;
35602;SDS011;21725;50.836;4.368;2024-01-30T06:46:07;10.18;;;4.85;;
35602;SDS011;21725;50.836;4.368;2024-01-30T06:49:09;10.68;;;5.40;;
35602;SDS011;21725;50.836;4.368;2024-01-30T06:52:10;8.82;;;4.38;;
35602;SDS011;21725;50.836;4.368;2024-01-30T06:55:11;11.85;;;5.60;;
35602;SDS011;21725;50.836;4.368;2024-01-30T06:58:13;9.18;;;4.47;;
35602;SDS011;21725;50.836;4.368;2024-01-30T07:01:14;13.10;;;5.05;;
35602;SDS011;21725;50.836;4.368;2024-01-30T07:04:15;8.35;;;4.45;;
35602;SDS011;21725;50.836;4.368;2024-01-30T07:07:16;10.15;;;5.25;;
35602;SDS011;21725;50.836;4.368;2024-01-30T07:10:17;9.60;;;5.28;;
35602;SDS011;21725;50.836;4.368;2024-01-30T07:13:19;11.13;;;4.80;;
35602;SDS011;21725;50.836;4.368;2024-01-30T07:16:23;9.38;;;5.07;;
35602;SDS011;21725;50.836;4.368;2024-01-30T07:19:24;11.85;;;5.47;;
35602;SDS011;21725;50.836;4.368;2024-01-30T07:22:24;12.10;;;5.53;;
35602;SDS011;21725;50.836;4.368;2024-01-30T07:25:25;12.75;;;5.68;;
35602;SDS011;21725;50.836;4.368;2024-01-30T07:28:29;9.45;;;4.97;;
35602;SDS011;21725;50.836;4.368;2024-01-30T07:31:31;10.52;;;4.40;;
35602;SDS011;21725;50.836;4.368;2024-01-30T07:34:35;10.40;;;5.60;;
35602;SDS011;21725;50.836;4.368;2024-01-30T07:37:36;12.02;;;5.90;;
35602;SDS011;21725;50.836;4.368;2024-01-30T07:40:37;10.18;;;5.53;;
35602;SDS011;21725;50.836;4.368;2024-01-30T07:43:38;10.82;;;5.35;;
35602;SDS011;21725;50.836;4.368;2024-01-30T07:46:39;29.60;;;6.65;;
35602;SDS011;21725;50.836;4.368;2024-01-30T07:49:40;21.67;;;6.85;;
35602;SDS011;21725;50.836;4.368;2024-01-30T07:52:41;16.23;;;7.00;;
35602;SDS011;21725;50.836;4.368;2024-01-30T07:55:42;14.70;;;6.00;;
35602;SDS011;21725;50.836;4.368;2024-01-30T07:58:46;16.27;;;6.35;;
35602;SDS011;21725;50.836;4.368;2024-01-30T08:01:47;17.42;;;6.68;;
35602;SDS011;21725;50.836;4.368;2024-01-30T08:04:48;17.05;;;5.45;;
35602;SDS011;21725;50.836;4.368;2024-01-30T08:07:49;12.45;;;7.22;;
35602;SDS011;21725;50.836;4.368;2024-01-30T08:10:50;15.50;;;5.90;;
35602;SDS011;21725;50.836;4.368;2024-01-30T08:13:52;14.52;;;6.85;;
35602;SDS011;21725;50.836;4.368;2024-01-30T08:16:53;16.75;;;7.65;;
35602;SDS011;21725;50.836;4.368;2024-01-30T08:19:54;15.68;;;6.88;;
35602;SDS011;21725;50.836;4.368;2024-01-30T08:22:54;15.15;;;6.57;;
35602;SDS011;21725;50.836;4.368;2024-01-30T08:26:01;16.70;;;6.47;;
35602;SDS011;21725;50.836;4.368;2024-01-30T08:29:02;14.75;;;6.82;;
35602;SDS011;21725;50.836;4.368;2024-01-30T08:32:06;19.10;;;6.63;;
35602;SDS011;21725;50.836;4.368;2024-01-30T08:35:10;11.77;;;6.22;;
35602;SDS011;21725;50.836;4.368;2024-01-30T08:38:13;12.38;;;5.20;;
35602;SDS011;21725;50.836;4.368;2024-01-30T08:41:14;10.00;;;5.63;;
35602;SDS011;21725;50.836;4.368;2024-01-30T08:44:15;16.63;;;5.93;;
35602;SDS011;21725;50.836;4.368;2024-01-30T08:47:17;15.52;;;6.40;;
35602;SDS011;21725;50.836;4.368;2024-01-30T08:50:21;15.68;;;6.32;;
35602;SDS011;21725;50.836;4.368;2024-01-30T08:53:22;17.63;;;7.07;;
35602;SDS011;21725;50.836;4.368;2024-01-30T08:56:23;16.88;;;5.85;;
35602;SDS011;21725;50.836;4.368;2024-01-30T08:59:23;14.45;;;6.03;;
35602;SDS011;21725;50.836;4.368;2024-01-30T09:02:24;15.25;;;7.05;;
35602;SDS011;21725;50.836;4.368;2024-01-30T09:05:25;13.48;;;5.80;;
35602;SDS011;21725;50.836;4.368;2024-01-30T09:08:26;13.27;;;5.80;;
35602;SDS011;21725;50.836;4.368;2024-01-30T09:11:27;13.13;;;5.47;;
35602;SDS011;21725;50.836;4.368;2024-01-30T09:14:31;20.25;;;8.98;;
35602;SDS011;21725;50.836;4.368;2024-01-30T09:17:32;15.10;;;7.13;;
35602;SDS011;21725;50.836;4.368;2024-01-30T09:20:36;11.85;;;6.35;;
35602;SDS011;21725;50.836;4.368;2024-01-30T09:23:37;16.70;;;6.53;;
35602;SDS011;21725;50.836;4.368;2024-01-30T09:26:38;23.70;;;7.43;;
35602;SDS011;21725;50.836;4.368;2024-01-30T09:29:39;16.38;;;7.07;;
35602;SDS011;21725;50.836;4.368;2024-01-30T09:32:40;25.08;;;8.65;;
35602;SDS011;21725;50.836;4.368;2024-01-30T09:35:41;22.95;;;8.95;;
35602;SDS011;21725;50.836;4.368;2024-01-30T09:38:42;11.15;;;5.95;;
35602;SDS011;21725;50.836;4.368;2024-01-30T09:41:49;15.82;;;7.20;;
35602;SDS011;21725;50.836;4.368;2024-01-30T09:44:55;15.60;;;6.97;;
35602;SDS011;21725;50.836;4.368;2024-01-30T09:47:58;13.30;;;6.72;;
35602;SDS011;21725;50.836;4.368;2024-01-30T09:51:00;25.20;;;8.20;;
35602;SDS011;21725;50.836;4.368;2024-01-30T09:54:02;21.73;;;7.95;;
35602;SDS011;21725;50.836;4.368;2024-01-30T09:57:03;17.73;;;7.50;;
35602;SDS011;21725;50.836;4.368;2024-01-30T10:00:05;18.20;;;7.35;;
35602;SDS011;21725;50.836;4.368;2024-01-30T10:03:09;13.18;;;6.78;;
35602;SDS011;21725;50.836;4.368;2024-01-30T10:06:10;15.77;;;7.63;;
35602;SDS011;21725;50.836;4.368;2024-01-30T10:09:15;17.67;;;8.60;;
35602;SDS011;21725;50.836;4.368;2024-01-30T10:12:16;19.33;;;7.88;;
35602;SDS011;21725;50.836;4.368;2024-01-30T10:15:17;16.40;;;8.23;;
35602;SDS011;21725;50.836;4.368;2024-01-30T10:18:24;18.33;;;8.40;;
35602;SDS011;21725;50.836;4.368;2024-01-30T10:21:25;14.40;;;7.97;;
35602;SDS011;21725;50.836;4.368;2024-01-30T10:24:26;16.38;;;8.35;;
35602;SDS011;21725;50.836;4.368;2024-01-30T10:27:29;10.63;;;5.60;;
35602;SDS011;21725;50.836;4.368;2024-01-30T10:30:30;17.83;;;8.93;;
35602;SDS011;21725;50.836;4.368;2024-01-30T10:33:33;16.00;;;6.75;;
35602;SDS011;21725;50.836;4.368;2024-01-30T10:36:36;15.95;;;7.05;;
35602;SDS011;21725;50.836;4.368;2024-01-30T10:39:46;11.80;;;6.57;;
35602;SDS011;21725;50.836;4.368;2024-01-30T10:42:47;15.38;;;7.80;;
35602;SDS011;21725;50.836;4.368;2024-01-30T10:45:50;15.13;;;6.68;;
35602;SDS011;21725;50.836;4.368;2024-01-30T10:48:58;13.30;;;7.07;;
35602;SDS011;21725;50.836;4.368;2024-01-30T10:52:00;16.42;;;6.32;;
35602;SDS011;21725;50.836;4.368;2024-01-30T10:55:03;19.13;;;7.65;;
35602;SDS011;21725;50.836;4.368;2024-01-30T10:58:07;12.98;;;6.40;;
35602;SDS011;21725;50.836;4.368;2024-01-30T11:01:11;11.55;;;5.78;;
35602;SDS011;21725;50.836;4.368;2024-01-30T11:04:16;14.90;;;6.97;;
35602;SDS011;21725;50.836;4.368;2024-01-30T11:07:23;14.00;;;5.32;;
35602;SDS011;21725;50.836;4.368;2024-01-30T11:10:26;16.50;;;7.32;;
35602;SDS011;21725;50.836;4.368;2024-01-30T11:13:31;22.65;;;12.07;;
35602;SDS011;21725;50.836;4.368;2024-01-30T11:16:32;11.32;;;5.70;;
35602;SDS011;21725;50.836;4.368;2024-01-30T11:19:33;29.35;;;14.70;;
35602;SDS011;21725;50.836;4.368;2024-01-30T11:22:35;10.07;;;4.63;;
35602;SDS011;21725;50.836;4.368;2024-01-30T11:25:35;7.30;;;4.00;;
35602;SDS011;21725;50.836;4.368;2024-01-30T11:28:37;10.52;;;3.33;;
35602;SDS011;21725;50.836;4.368;2024-01-30T11:31:38;10.60;;;3.15;;
35602;SDS011;21725;50.836;4.368;2024-01-30T11:34:40;5.32;;;2.30;;
35602;SDS011;21725;50.836;4.368;2024-01-30T11:37:42;12.40;;;2.75;;
35602;SDS011;21725;50.836;4.368;2024-01-30T11:40:56;8.32;;;3.08;;
35602;SDS011;21725;50.836;4.368;2024-01-30T11:43:57;6.32;;;1.95;;
35602;SDS011;21725;50.836;4.368;2024-01-30T11:47:01;14.57;;;3.05;;
35602;SDS011;21725;50.836;4.368;2024-01-30T11:50:04;6.38;;;2.00;;
35602;SDS011;21725;50.836;4.368;2024-01-30T11:53:06;6.63;;;1.73;;
35602;SDS011;21725;50.836;4.368;2024-01-30T11:56:13;8.27;;;3.13;;
35602;SDS011;21725;50.836;4.368;2024-01-30T11:59:14;7.13;;;2.47;;
35602;SDS011;21725;50.836;4.368;2024-01-30T12:02:15;5.55;;;1.80;;
35602;SDS011;21725;50.836;4.368;2024-01-30T12:05:18;10.10;;;3.15;;
35602;SDS011;21725;50.836;4.368;2024-01-30T12:08:25;7.88;;;2.25;;
35602;SDS011;21725;50.836;4.368;2024-01-30T12:11:27;7.85;;;1.73;;
35602;SDS011;21725;50.836;4.368;2024-01-30T12:14:30;6.13;;;2.00;;
35602;SDS011;21725;50.836;4.368;2024-01-30T12:17:34;3.88;;;1.33;;
35602;SDS011;21725;50.836;4.368;2024-01-30T12:20:35;5.43;;;1.38;;
35602;SDS011;21725;50.836;4.368;2024-01-30T12:23:36;3.65;;;1.30;;
35602;SDS011;21725;50.836;4.368;2024-01-30T12:26:37;12.23;;;2.50;;
35602;SDS011;21725;50.836;4.368;2024-01-30T12:29:41;7.50;;;1.63;;
35602;SDS011;21725;50.836;4.368;2024-01-30T12:32:43;5.80;;;1.40;;
35602;SDS011;21725;50.836;4.368;2024-01-30T12:35:45;3.50;;;1.20;;
35602;SDS011;21725;50.836;4.368;2024-01-30T12:38:48;4.30;;;1.83;;
35602;SDS011;21725;50.836;4.368;2024-01-30T12:41:51;4.78;;;1.58;;
35602;SDS011;21725;50.836;4.368;2024-01-30T12:44:52;7.53;;;1.30;;
35602;SDS011;21725;50.836;4.368;2024-01-30T12:47:56;4.43;;;1.67;;
35602;SDS011;21725;50.836;4.368;2024-01-30T12:51:00;5.68;;;1.80;;
35602;SDS011;21725;50.836;4.368;2024-01-30T12:54:05;6.35;;;1.67;;
35602;SDS011;21725;50.836;4.368;2024-01-30T12:57:06;5.15;;;1.73;;
35602;SDS011;21725;50.836;4.368;2024-01-30T13:00:08;3.95;;;1.30;;
35602;SDS011;21725;50.836;4.368;2024-01-30T13:03:09;5.63;;;2.35;;
35602;SDS011;21725;50.836;4.368;2024-01-30T13:06:35;4.90;;;1.80;;
35602;SDS011;21725;50.836;4.368;2024-01-30T13:09:43;6.82;;;1.88;;
35602;SDS011;21725;50.836;4.368;2024-01-30T13:12:47;3.35;;;1.52;;
35602;SDS011;21725;50.836;4.368;2024-01-30T13:15:53;7.40;;;2.65;;
35602;SDS011;21725;50.836;4.368;2024-01-30T13:18:57;7.30;;;1.52;;
35602;SDS011;21725;50.836;4.368;2024-01-30T13:21:59;10.82;;;1.95;;
35602;SDS011;21725;50.836;4.368;2024-01-30T13:25:03;4.78;;;2.00;;
35602;SDS011;21725;50.836;4.368;2024-01-30T13:28:06;3.75;;;1.50;;
35602;SDS011;21725;50.836;4.368;2024-01-30T13:31:08;4.43;;;1.23;;
35602;SDS011;21725;50.836;4.368;2024-01-30T13:34:09;7.00;;;1.58;;
35602;SDS011;21725;50.836;4.368;2024-01-30T13:37:16;6.47;;;2.10;;
35602;SDS011;21725;50.836;4.368;2024-01-30T13:40:24;5.78;;;1.88;;
35602;SDS011;21725;50.836;4.368;2024-01-30T13:43:26;5.45;;;1.95;;
35602;SDS011;21725;50.836;4.368;2024-01-30T13:46:29;8.80;;;1.73;;
35602;SDS011;21725;50.836;4.368;2024-01-30T13:49:31;8.00;;;2.00;;
35602;SDS011;21725;50.836;4.368;2024-01-30T13:52:35;9.35;;;2.47;;
35602;SDS011;21725;50.836;4.368;2024-01-30T13:55:35;6.05;;;1.67;;
35602;SDS011;21725;50.836;4.368;2024-01-30T13:58:37;5.40;;;1.60;;
35602;SDS011;21725;50.836;4.368;2024-01-30T14:01:38;6.18;;;2.20;;
35602;SDS011;21725;50.836;4.368;2024-01-30T14:04:41;4.75;;;1.70;;
35602;SDS011;21725;50.836;4.368;2024-01-30T14:07:43;6.68;;;1.60;;
35602;SDS011;21725;50.836;4.368;2024-01-30T14:10:44;7.80;;;1.85;;
35602;SDS011;21725;50.836;4.368;2024-01-30T14:13:45;5.25;;;1.60;;
35602;SDS011;21725;50.836;4.368;2024-01-30T14:16:47;8.80;;;2.20;;
35602;SDS011;21725;50.836;4.368;2024-01-30T14:19:48;9.90;;;1.80;;
35602;SDS011;21725;50.836;4.368;2024-01-30T14:22:50;7.95;;;1.83;;
35602;SDS011;21725;50.836;4.368;2024-01-30T14:25:55;7.72;;;2.67;;
35602;SDS011;21725;50.836;4.368;2024-01-30T14:28:56;16.58;;;6.38;;
35602;SDS011;21725;50.836;4.368;2024-01-30T14:31:57;10.10;;;2.03;;
35602;SDS011;21725;50.836;4.368;2024-01-30T14:35:00;7.10;;;2.35;;
35602;SDS011;21725;50.836;4.368;2024-01-30T14:38:02;9.80;;;2.85;;
35602;SDS011;21725;50.836;4.368;2024-01-30T14:41:05;5.25;;;1.90;;
35602;SDS011;21725;50.836;4.368;2024-01-30T14:44:06;6.82;;;2.25;;
35602;SDS011;21725;50.836;4.368;2024-01-30T14:47:08;4.82;;;2.05;;
35602;SDS011;21725;50.836;4.368;2024-01-30T14:50:09;6.00;;;2.45;;
35602;SDS011;21725;50.836;4.368;2024-01-30T14:53:10;17.88;;;3.25;;
35602;SDS011;21725;50.836;4.368;2024-01-30T14:56:11;14.98;;;4.50;;
35602;SDS011;21725;50.836;4.368;2024-01-30T14:59:17;14.13;;;4.13;;
35602;SDS011;21725;50.836;4.368;2024-01-30T15:02:21;10.80;;;2.67;;
35602;SDS011;21725;50.836;4.368;2024-01-30T15:05:23;6.78;;;2.08;;
35602;SDS011;21725;50.836;4.368;2024-01-30T15:08:25;9.13;;;2.08;;
35602;SDS011;21725;50.836;4.368;2024-01-30T15:11:26;6.72;;;2.15;;
35602;SDS011;21725;50.836;4.368;2024-01-30T15:14:27;8.75;;;3.05;;
35602;SDS011;21725;50.836;4.368;2024-01-30T15:17:28;5.78;;;2.20;;
35602;SDS011;21725;50.836;4.368;2024-01-30T15:20:29;4.95;;;1.65;;
35602;SDS011;21725;50.836;4.368;2024-01-30T15:23:31;10.77;;;2.53;;
35602;SDS011;21725;50.836;4.368;2024-01-30T15:26:32;10.90;;;2.97;;
35602;SDS011;21725;50.836;4.368;2024-01-30T15:29:33;14.57;;;3.72;;
35602;SDS011;21725;50.836;4.368;2024-01-30T15:32:40;6.40;;;2.38;;
35602;SDS011;21725;50.836;4.368;2024-01-30T15:35:47;9.15;;;2.80;;
35602;SDS011;21725;50.836;4.368;2024-01-30T15:38:49;8.40;;;2.50;;
35602;SDS011;21725;50.836;4.368;2024-01-30T15:41:50;9.52;;;4.40;;
35602;SDS011;21725;50.836;4.368;2024-01-30T15:44:52;6.03;;;2.58;;
35602;SDS011;21725;50.836;4.368;2024-01-30T15:47:56;5.97;;;2.83;;
35602;SDS011;21725;50.836;4.368;2024-01-30T15:50:58;6.25;;;2.85;;
35602;SDS011;21725;50.836;4.368;2024-01-30T15:53:59;8.70;;;2.60;;
35602;SDS011;21725;50.836;4.368;2024-01-30T15:57:00;7.90;;;3.13;;
35602;SDS011;21725;50.836;4.368;2024-01-30T16:00:07;6.00;;;1.88;;
35602;SDS011;21725;50.836;4.368;2024-01-30T16:03:10;10.32;;;2.67;;
35602;SDS011;21725;50.836;4.368;2024-01-30T16:06:11;9.70;;;2.75;;
35602;SDS011;21725;50.836;4.368;2024-01-30T16:09:16;9.18;;;2.33;;
35602;SDS011;21725;50.836;4.368;2024-01-30T16:12:17;7.78;;;2.22;;
35602;SDS011;21725;50.836;4.368;2024-01-30T16:15:21;8.43;;;2.88;;
35602;SDS011;21725;50.836;4.368;2024-01-30T16:18:22;11.43;;;3.58;;
35602;SDS011;21725;50.836;4.368;2024-01-30T16:21:27;8.43;;;2.60;;
35602;SDS011;21725;50.836;4.368;2024-01-30T16:24:48;6.45;;;2.45;;
35602;SDS011;21725;50.836;4.368;2024-01-30T16:27:52;8.30;;;3.28;;
35602;SDS011;21725;50.836;4.368;2024-01-30T16:30:53;19.80;;;8.10;;
35602;SDS011;21725;50.836;4.368;2024-01-30T16:33:55;7.65;;;2.88;;
35602;SDS011;21725;50.836;4.368;2024-01-30T16:36:57;9.82;;;4.00;;
35602;SDS011;21725;50.836;4.368;2024-01-30T16:39:58;6.40;;;2.40;;
35602;SDS011;21725;50.836;4.368;2024-01-30T16:42:59;9.30;;;3.95;;
35602;SDS011;21725;50.836;4.368;2024-01-30T16:46:00;6.75;;;2.92;;
35602;SDS011;21725;50.836;4.368;2024-01-30T16:49:05;6.40;;;3.08;;
35602;SDS011;21725;50.836;4.368;2024-01-30T16:52:06;12.77;;;3.50;;
35602;SDS011;21725;50.836;4.368;2024-01-30T16:55:08;12.25;;;4.45;;
35602;SDS011;21725;50.836;4.368;2024-01-30T16:58:09;6.40;;;2.78;;
35602;SDS011;21725;50.836;4.368;2024-01-30T17:01:11;8.07;;;3.45;;
35602;SDS011;21725;50.836;4.368;2024-01-30T17:04:16;11.80;;;3.92;;
35602;SDS011;21725;50.836;4.368;2024-01-30T17:07:20;8.70;;;3.30;;
35602;SDS011;21725;50.836;4.368;2024-01-30T17:10:23;11.18;;;4.03;;
35602;SDS011;21725;50.836;4.368;2024-01-30T17:13:25;12.27;;;5.13;;
35602;SDS011;21725;50.836;4.368;2024-01-30T17:16:26;9.90;;;4.57;;
35602;SDS011;21725;50.836;4.368;2024-01-30T17:19:27;7.93;;;3.30;;
35602;SDS011;21725;50.836;4.368;2024-01-30T17:22:27;10.55;;;4.53;;
35602;SDS011;21725;50.836;4.368;2024-01-30T17:25:29;13.40;;;4.30;;
35602;SDS011;21725;50.836;4.368;2024-01-30T17:28:31;11.77;;;5.60;;
35602;SDS011;21725;50.836;4.368;2024-01-30T17:31:32;9.60;;;4.53;;
35602;SDS011;21725;50.836;4.368;2024-01-30T17:34:33;14.05;;;6.15;;
35602;SDS011;21725;50.836;4.368;2024-01-30T17:37:37;14.48;;;6.82;;
35602;SDS011;21725;50.836;4.368;2024-01-30T17:40:39;12.00;;;4.78;;
35602;SDS011;21725;50.836;4.368;2024-01-30T17:43:40;17.42;;;7.05;;
35602;SDS011;21725;50.836;4.368;2024-01-30T17:46:42;10.30;;;4.97;;
35602;SDS011;21725;50.836;4.368;2024-01-30T17:49:43;11.93;;;4.30;;
35602;SDS011;21725;50.836;4.368;2024-01-30T17:52:44;12.00;;;4.10;;
35602;SDS011;21725;50.836;4.368;2024-01-30T17:55:45;14.30;;;4.57;;
35602;SDS011;21725;50.836;4.368;2024-01-30T17:58:45;15.18;;;6.15;;
35602;SDS011;21725;50.836;4.368;2024-01-30T18:01:49;15.57;;;5.43;;
35602;SDS011;21725;50.836;4.368;2024-01-30T18:04:50;10.90;;;5.43;;
35602;SDS011;21725;50.836;4.368;2024-01-30T18:07:51;9.77;;;5.28;;
35602;SDS011;21725;50.836;4.368;2024-01-30T18:10:52;10.68;;;5.05;;
35602;SDS011;21725;50.836;4.368;2024-01-30T18:13:53;14.18;;;5.13;;
35602;SDS011;21725;50.836;4.368;2024-01-30T18:16:55;11.20;;;5.10;;
35602;SDS011;21725;50.836;4.368;2024-01-30T18:19:56;13.60;;;5.38;;
35602;SDS011;21725;50.836;4.368;2024-01-30T18:22:57;12.98;;;5.47;;
35602;SDS011;21725;50.836;4.368;2024-01-30T18:25:58;14.82;;;5.45;;
35602;SDS011;21725;50.836;4.368;2024-01-30T18:29:01;9.57;;;5.50;;
35602;SDS011;21725;50.836;4.368;2024-01-30T18:32:03;9.73;;;4.72;;
35602;SDS011;21725;50.836;4.368;2024-01-30T18:35:04;10.68;;;4.20;;
35602;SDS011;21725;50.836;4.368;2024-01-30T18:38:05;10.63;;;4.00;;
35602;SDS011;21725;50.836;4.368;2024-01-30T18:41:06;9.73;;;5.10;;
35602;SDS011;21725;50.836;4.368;2024-01-30T18:44:07;12.10;;;4.97;;
35602;SDS011;21725;50.836;4.368;2024-01-30T18:47:08;11.73;;;4.38;;
35602;SDS011;21725;50.836;4.368;2024-01-30T18:50:11;12.45;;;4.63;;
35602;SDS011;21725;50.836;4.368;2024-01-30T18:53:16;8.48;;;5.22;;
35602;SDS011;21725;50.836;4.368;2024-01-30T18:56:17;8.25;;;5.05;;
35602;SDS011;21725;50.836;4.368;2024-01-30T18:59:19;12.27;;;5.97;;